Time;durP1;ratioP1;P1;durP2;ratioP2;P2;SDS_P1;SDS_P2;PMS_P1;PMS_P2;Temp;Humidity;BMP_temperature;BMP_pressure;BME280_temperature;BME280_humidity;BME280_pressure;Samples;Min_cycle;Max_cycle;Signal;HPM_P1;HPM_P2
2023/03/31 00:02:20;;;;;;;15.07;3.35;;;;;;;10.52;70.61;100378.16;7389530;19;20494;-76
2023/03/31 00:04:51;;;;;;;16.85;3.67;;;;;;;10.54;70.37;100370.88;7392369;19;20022;-76
2023/03/31 00:07:20;;;;;;;15.93;3.50;;;;;;;10.55;70.50;100376.03;7392083;19;20037;-76
2023/03/31 00:09:53;;;;;;;13.85;3.97;;;;;;;10.52;70.80;100367.53;7391968;19;19999;-75
2023/03/31 00:12:20;;;;;;;17.70;3.88;;;;;;;10.46;71.29;100368.91;7390587;19;20006;-75
2023/03/31 00:14:45;;;;;;;14.07;3.92;;;;;;;10.46;71.34;100363.59;7387691;19;20499;-77
2023/03/31 00:17:11;;;;;;;13.85;3.40;;;;;;;10.47;71.63;100369.75;7392198;19;20003;-78
2023/03/31 00:19:37;;;;;;;17.08;3.95;;;;;;;10.47;71.54;100354.63;7392321;19;20003;-78
2023/03/31 00:22:04;;;;;;;15.52;3.78;;;;;;;10.48;71.78;100353.69;7391147;19;20002;-77
2023/03/31 00:24:32;;;;;;;15.38;3.47;;;;;;;10.41;72.42;100353.38;7387645;19;20006;-77
2023/03/31 00:27:02;;;;;;;12.23;4.00;;;;;;;10.35;72.75;100348.59;7391780;19;19995;-78
2023/03/31 00:29:28;;;;;;;15.20;3.80;;;;;;;10.37;72.99;100348.47;7401573;19;19990;-81
2023/03/31 00:31:54;;;;;;;13.88;3.50;;;;;;;10.35;72.97;100353.91;7394993;19;20006;-77
2023/03/31 00:34:20;;;;;;;14.63;3.60;;;;;;;10.37;72.91;100341.34;7395653;19;20009;-78
2023/03/31 00:36:46;;;;;;;13.38;3.15;;;;;;;10.36;72.71;100333.50;7398476;19;20017;-78
2023/03/31 00:39:14;;;;;;;13.68;3.55;;;;;;;10.37;73.03;100327.22;7400988;19;19990;-78
2023/03/31 00:41:40;;;;;;;14.90;4.15;;;;;;;10.36;72.71;100325.53;7405331;19;20316;-79
2023/03/31 00:44:21;;;;;;;13.63;4.25;;;;;;;10.41;73.23;100318.84;7402034;19;20024;-69
2023/03/31 00:47:01;;;;;;;17.95;4.25;;;;;;;10.37;73.22;100319.25;7398334;19;19995;-69
2023/03/31 00:49:48;;;;;;;11.63;3.22;;;;;;;10.36;73.90;100317.56;7398117;19;20005;-69
2023/03/31 00:52:22;;;;;;;12.68;4.05;;;;;;;10.35;74.00;100313.22;7397525;19;20005;-69
2023/03/31 00:54:52;;;;;;;14.90;3.70;;;;;;;10.33;73.77;100309.88;7394350;19;19998;-73
2023/03/31 00:57:20;;;;;;;15.02;3.83;;;;;;;10.32;74.09;100303.72;7398298;19;20308;-72
2023/03/31 00:59:52;;;;;;;12.25;3.70;;;;;;;10.34;74.15;100307.09;7395996;19;20058;-70
2023/03/31 01:02:24;;;;;;;13.02;3.92;;;;;;;10.34;74.33;100304.44;7395198;19;20002;-70
2023/03/31 01:04:58;;;;;;;14.55;3.63;;;;;;;10.34;74.39;100298.28;7396614;19;19995;-68
2023/03/31 01:07:45;;;;;;;12.02;3.83;;;;;;;10.30;74.99;100304.84;7396022;19;20002;-68
2023/03/31 01:10:11;;;;;;;13.73;3.47;;;;;;;10.29;74.72;100298.69;7397448;19;19990;-68
2023/03/31 01:12:43;;;;;;;13.27;3.58;;;;;;;10.35;74.73;100294.66;7396286;19;20019;-72
2023/03/31 01:15:09;;;;;;;15.18;4.57;;;;;;;10.25;74.99;100286.69;7392182;19;20028;-69
2023/03/31 01:17:35;;;;;;;15.50;4.07;;;;;;;10.28;74.94;100283.72;7396525;19;20525;-68
2023/03/31 01:20:21;;;;;;;14.73;3.70;;;;;;;10.27;75.46;100276.75;7396879;19;20005;-68
2023/03/31 01:23:14;;;;;;;13.27;3.38;;;;;;;10.27;75.60;100276.75;7395769;19;20006;-68
2023/03/31 01:25:55;;;;;;;11.70;2.90;;;;;;;10.32;74.88;100266.53;7396020;19;20002;-67
2023/03/31 01:28:38;;;;;;;13.27;3.50;;;;;;;10.30;75.29;100254.41;7396757;19;19998;-68
2023/03/31 01:31:32;;;;;;;13.90;3.97;;;;;;;10.28;75.56;100253.69;7397037;19;20013;-68
2023/03/31 01:34:17;;;;;;;11.82;3.28;;;;;;;10.23;75.19;100246.13;7391884;19;20015;-68
2023/03/31 01:36:59;;;;;;;;;;;;;;;10.17;76.08;100244.00;7396390;19;20006;-68
2023/03/31 01:40:01;;;;;;;12.07;3.72;;;;;;;10.16;76.00;100242.34;7396831;19;19935;-69
2023/03/31 01:42:41;;;;;;;15.60;4.18;;;;;;;10.27;75.22;100234.25;7394807;19;20003;-70
2023/03/31 01:45:22;;;;;;;14.88;4.25;;;;;;;10.33;74.94;100232.91;7391287;19;20030;-69
2023/03/31 01:47:57;;;;;;;13.93;3.63;;;;;;;10.32;75.24;100226.72;7394656;19;20066;-69
2023/03/31 01:50:33;;;;;;;12.18;4.15;;;;;;;10.27;75.32;100222.81;7395226;19;20478;-72
2023/03/31 01:53:29;;;;;;;16.08;4.13;;;;;;;10.30;75.55;100222.53;7394997;19;20029;-72
2023/03/31 01:55:57;;;;;;;15.18;3.42;;;;;;;10.29;75.56;100228.84;7394845;19;20399;-70
2023/03/31 01:58:38;;;;;;;14.48;3.83;;;;;;;10.30;75.71;100214.56;7395992;19;20363;-69
2023/03/31 02:01:12;;;;;;;15.60;3.70;;;;;;;10.24;75.63;100207.97;7396460;19;20009;-69
2023/03/31 02:03:56;;;;;;;15.55;3.85;;;;;;;10.28;75.70;100201.41;7393799;19;20392;-69
2023/03/31 02:06:28;;;;;;;16.80;4.10;;;;;;;10.20;75.89;100196.81;7395458;19;20006;-70
2023/03/31 02:08:59;;;;;;;18.13;4.05;;;;;;;10.25;75.82;100204.38;7395574;19;20009;-74
2023/03/31 02:11:28;;;;;;;16.17;4.18;;;;;;;10.26;75.73;100198.09;7396177;19;20002;-72
2023/03/31 02:13:55;;;;;;;15.65;4.07;;;;;;;10.26;75.73;100187.47;7392485;19;20014;-72
2023/03/31 02:16:26;;;;;;;16.08;4.60;;;;;;;10.25;75.68;100183.13;7395012;19;19995;-73
2023/03/31 02:19:01;;;;;;;16.35;4.15;;;;;;;10.23;76.08;100174.47;7394631;19;20010;-70
2023/03/31 02:21:36;;;;;;;13.18;4.10;;;;;;;10.17;76.38;100181.16;7395638;19;20006;-77
2023/03/31 02:24:06;;;;;;;14.48;3.50;;;;;;;10.16;76.14;100175.97;7393963;19;19994;-76
2023/03/31 02:26:39;;;;;;;13.52;4.00;;;;;;;10.13;76.49;100163.84;7393619;19;20003;-76
2023/03/31 02:29:04;;;;;;;16.38;4.47;;;;;;;10.11;76.37;100179.06;7393206;19;20099;-77
2023/03/31 02:31:59;;;;;;;15.63;4.35;;;;;;;10.15;76.71;100180.47;7394407;19;20003;-77
2023/03/31 02:34:24;;;;;;;;;;;;;;;10.13;76.96;100173.59;7392736;19;20005;-75
2023/03/31 02:36:51;;;;;;;12.60;3.72;;;;;;;10.11;76.48;100171.09;7394698;19;19966;-77
2023/03/31 02:39:23;;;;;;;12.63;3.80;;;;;;;10.17;76.39;100165.25;7395746;19;20006;-76
2023/03/31 02:41:49;;;;;;;14.65;3.90;;;;;;;10.10;76.58;100172.06;7396695;19;19994;-73
2023/03/31 02:44:16;;;;;;;15.23;3.88;;;;;;;10.16;76.43;100166.19;7392424;19;20001;-76
2023/03/31 02:46:42;;;;;;;13.57;3.95;;;;;;;10.12;76.52;100154.19;7394198;19;20325;-77
2023/03/31 02:49:10;;;;;;;13.82;3.65;;;;;;;10.12;76.24;100148.03;7395310;19;20371;-76
2023/03/31 02:52:00;;;;;;;12.93;4.22;;;;;;;10.16;76.43;100141.47;7394350;19;19998;-76
2023/03/31 02:54:37;;;;;;;12.35;3.28;;;;;;;10.15;76.02;100139.81;7391706;19;20009;-77
2023/03/31 02:57:31;;;;;;;13.43;3.65;;;;;;;10.06;76.57;100136.16;7394539;19;20419;-80
2023/03/31 03:00:24;;;;;;;13.35;3.58;;;;;;;10.04;76.67;100137.28;7392012;19;20474;-74
2023/03/31 03:03:14;;;;;;;16.52;3.80;;;;;;;10.04;76.38;100135.47;7393114;19;19994;-75
2023/03/31 03:05:48;;;;;;;14.05;3.75;;;;;;;10.11;76.13;100133.94;7392976;19;19998;-75
2023/03/31 03:08:32;;;;;;;13.57;3.78;;;;;;;10.11;76.21;100131.28;7393602;19;19994;-74
2023/03/31 03:11:06;;;;;;;14.95;3.55;;;;;;;10.06;76.14;100125.56;7393836;19;20450;-73
2023/03/31 03:13:35;;;;;;;12.75;3.85;;;;;;;10.06;75.94;100128.22;7392618;19;20017;-80
2023/03/31 03:16:23;;;;;;;14.75;3.92;;;;;;;10.08;76.14;100128.06;7395923;19;20066;-84
2023/03/31 03:18:57;;;;;;;13.40;3.28;;;;;;;10.07;75.81;100121.91;7399914;19;20003;-72
2023/03/31 03:21:23;;;;;;;14.00;3.30;;;;;;;10.04;75.84;100118.69;7392919;19;19999;-70
2023/03/31 03:23:50;;;;;;;13.02;3.80;;;;;;;10.08;75.79;100125.41;7389086;19;19998;-69
2023/03/31 03:26:20;;;;;;;13.57;3.40;;;;;;;10.08;75.73;100106.81;7390372;19;20573;-68
2023/03/31 03:28:47;;;;;;;13.63;3.70;;;;;;;10.01;75.97;100098.56;7393913;19;20027;-68
2023/03/31 03:31:14;;;;;;;17.60;4.65;;;;;;;10.09;75.41;100109.34;7392829;19;20021;-69
2023/03/31 03:33:40;;;;;;;13.57;3.70;;;;;;;10.07;75.49;100097.19;7391366;19;20009;-69
2023/03/31 03:36:07;;;;;;;11.25;3.60;;;;;;;10.08;75.40;100098.88;7389484;19;20759;-68
2023/03/31 03:38:32;;;;;;;12.63;3.65;;;;;;;10.08;75.31;100091.75;7386556;19;20002;-67
2023/03/31 03:40:58;;;;;;;11.05;3.22;;;;;;;10.12;75.04;100085.16;7390060;19;20470;-67
2023/03/31 03:43:23;;;;;;;15.60;3.67;;;;;;;10.12;75.22;100095.78;7389842;19;20002;-67
2023/03/31 03:45:50;;;;;;;11.10;3.25;;;;;;;10.12;75.23;100094.94;7389352;19;20113;-67
2023/03/31 03:48:16;;;;;;;14.30;3.58;;;;;;;10.09;75.11;100092.56;7391947;19;20095;-67
2023/03/31 03:50:44;;;;;;;11.98;3.05;;;;;;;10.10;75.18;100087.16;7391949;19;19999;-67
2023/03/31 03:53:10;;;;;;;11.88;3.50;;;;;;;10.11;74.90;100082.66;7387323;19;20013;-67
2023/03/31 03:55:36;;;;;;;12.23;3.10;;;;;;;10.09;74.85;100068.69;7387866;19;20054;-68
2023/03/31 03:58:01;;;;;;;13.05;3.10;;;;;;;10.08;75.19;100072.31;7390853;19;20003;-67
2023/03/31 04:00:27;;;;;;;10.85;2.90;;;;;;;10.06;75.13;100061.03;7391633;19;20034;-67
2023/03/31 04:02:52;;;;;;;12.73;3.08;;;;;;;10.04;75.10;100062.97;7389850;19;20016;-67
2023/03/31 04:05:18;;;;;;;10.98;2.80;;;;;;;10.07;75.01;100065.34;7390087;19;20006;-67
2023/03/31 04:07:43;;;;;;;12.25;3.10;;;;;;;10.11;74.93;100050.81;7390090;19;20014;-68
2023/03/31 04:10:09;;;;;;;11.85;2.85;;;;;;;10.07;74.96;100044.97;7390397;19;20002;-65
2023/03/31 04:12:35;;;;;;;16.48;3.10;;;;;;;10.07;74.78;100044.97;7390005;19;20022;-66
2023/03/31 04:15:01;;;;;;;9.23;2.60;;;;;;;10.09;74.97;100042.16;7388723;19;20025;-66
2023/03/31 04:17:33;;;;;;;8.80;2.55;;;;;;;10.08;74.93;100033.34;7388847;19;19991;-65
2023/03/31 04:20:10;;;;;;;13.27;2.90;;;;;;;10.04;74.90;100025.81;7388480;19;19995;-66
2023/03/31 04:22:39;;;;;;;9.63;2.72;;;;;;;10.08;74.98;100019.25;7389804;19;20610;-67
2023/03/31 04:25:15;;;;;;;14.50;2.90;;;;;;;10.02;74.98;100017.16;7389784;19;19995;-68
2023/03/31 04:27:49;;;;;;;11.30;2.83;;;;;;;10.00;74.85;100005.84;7389562;19;20006;-67
2023/03/31 04:30:22;;;;;;;10.88;2.85;;;;;;;9.98;75.03;100007.78;7390006;19;20009;-68
2023/03/31 04:32:53;;;;;;;12.00;2.75;;;;;;;9.90;75.25;99995.22;7388802;19;20002;-67
2023/03/31 04:35:23;;;;;;;12.68;2.83;;;;;;;9.91;75.14;99991.63;7386914;19;20003;-67
2023/03/31 04:37:57;;;;;;;10.77;2.88;;;;;;;9.95;75.29;99985.06;7390189;19;20003;-67
2023/03/31 04:40:24;;;;;;;13.52;3.13;;;;;;;9.80;75.59;99976.66;7390232;19;20551;-67
2023/03/31 04:42:50;;;;;;;15.35;3.25;;;;;;;9.85;75.54;99970.94;7386735;19;20376;-67
2023/03/31 04:45:16;;;;;;;11.00;2.80;;;;;;;9.89;75.28;99973.16;7389865;19;20006;-67
2023/03/31 04:47:42;;;;;;;14.85;3.30;;;;;;;9.83;75.43;99955.19;7389516;19;20348;-67
2023/03/31 04:50:09;;;;;;;12.45;2.97;;;;;;;9.81;75.63;99958.91;7389947;19;20097;-66
2023/03/31 04:52:36;;;;;;;11.27;3.40;;;;;;;9.74;76.00;99960.44;7388413;19;20007;-67
2023/03/31 04:55:02;;;;;;;12.20;2.90;;;;;;;9.70;76.13;99955.41;7388509;19;20006;-67
2023/03/31 04:57:28;;;;;;;11.95;3.13;;;;;;;9.73;76.33;99940.22;7390117;19;19998;-66
2023/03/31 04:59:59;;;;;;;11.43;3.45;;;;;;;9.73;75.98;99935.75;7390472;19;20473;-66
2023/03/31 05:02:25;;;;;;;13.50;3.65;;;;;;;9.75;76.21;99936.41;7388183;19;20027;-66
2023/03/31 05:04:51;;;;;;;15.85;4.05;;;;;;;9.70;76.03;99930.72;7389422;19;20374;-66
2023/03/31 05:07:17;;;;;;;15.00;4.18;;;;;;;9.73;76.08;99922.47;7390062;19;20007;-66
2023/03/31 05:09:43;;;;;;;13.00;4.18;;;;;;;9.70;75.96;99922.75;7389847;19;20003;-65
2023/03/31 05:12:16;;;;;;;13.60;4.20;;;;;;;9.74;75.95;99923.31;7386996;19;20025;-65
2023/03/31 05:14:42;;;;;;;17.50;4.85;;;;;;;9.71;76.11;99913.81;7386775;19;20015;-65
2023/03/31 05:17:07;;;;;;;15.70;4.80;;;;;;;9.74;75.93;99910.88;7387875;19;19995;-66
2023/03/31 05:19:33;;;;;;;15.80;5.30;;;;;;;9.69;76.10;99908.66;7394196;19;20435;-66
2023/03/31 05:21:59;;;;;;;12.82;4.70;;;;;;;9.67;76.19;99907.94;7396170;19;20001;-65
2023/03/31 05:24:27;;;;;;;15.05;5.35;;;;;;;9.66;76.15;99905.44;7393817;19;20002;-66
2023/03/31 05:26:53;;;;;;;14.45;6.10;;;;;;;9.72;75.86;99899.59;7396198;19;20011;-65
2023/03/31 05:29:19;;;;;;;13.65;4.95;;;;;;;9.74;75.92;99892.31;7394725;19;19994;-65
2023/03/31 05:31:45;;;;;;;16.75;5.97;;;;;;;9.73;75.95;99895.94;7396156;19;20014;-66
2023/03/31 05:34:10;;;;;;;14.23;5.47;;;;;;;9.76;75.97;99892.19;7394971;19;20506;-66
2023/03/31 05:36:36;;;;;;;16.15;5.75;;;;;;;9.65;76.40;99887.88;7396255;19;19999;-65
2023/03/31 05:39:03;;;;;;;11.55;5.85;;;;;;;9.68;76.40;99888.44;7396934;19;19994;-66
2023/03/31 05:41:29;;;;;;;14.98;6.00;;;;;;;9.69;76.56;99892.75;7396416;19;20006;-66
2023/03/31 05:43:55;;;;;;;16.10;5.97;;;;;;;9.64;77.00;99886.22;7393513;19;20006;-67
2023/03/31 05:46:20;;;;;;;14.80;5.68;;;;;;;9.63;77.30;99889.81;7393478;19;20002;-67
2023/03/31 05:48:46;;;;;;;13.32;6.15;;;;;;;9.68;77.22;99887.59;7396022;19;20463;-67
2023/03/31 05:51:11;;;;;;;15.02;6.18;;;;;;;9.63;77.48;99892.47;7396427;19;20007;-67
2023/03/31 05:53:37;;;;;;;12.77;5.90;;;;;;;9.55;77.99;99890.53;7393583;19;19995;-67
2023/03/31 05:56:05;;;;;;;15.77;6.30;;;;;;;9.48;78.04;99884.09;7394760;19;20010;-67
2023/03/31 05:58:34;;;;;;;17.42;5.93;;;;;;;9.46;78.49;99883.41;7396192;19;20050;-67
2023/03/31 06:01:04;;;;;;;15.48;6.40;;;;;;;9.43;78.82;99881.88;7395851;19;19998;-66
2023/03/31 06:03:32;;;;;;;18.80;6.53;;;;;;;9.42;78.61;99880.22;7391707;19;20054;-66
2023/03/31 06:05:57;;;;;;;19.52;6.82;;;;;;;9.49;78.96;99884.97;7394990;19;19999;-66
2023/03/31 06:08:23;;;;;;;13.38;6.00;;;;;;;9.51;78.61;99861.78;7394588;19;20010;-66
2023/03/31 06:10:49;;;;;;;13.63;6.13;;;;;;;9.53;78.65;99863.31;7396615;19;19999;-66
2023/03/31 06:13:15;;;;;;;18.52;6.82;;;;;;;9.50;79.19;99862.75;7391232;19;20001;-67
2023/03/31 06:15:41;;;;;;;15.25;6.75;;;;;;;9.48;78.94;99857.59;7391776;19;20014;-66
2023/03/31 06:18:09;;;;;;;13.90;6.43;;;;;;;9.47;79.27;99859.41;7394956;19;20331;-67
2023/03/31 06:20:35;;;;;;;17.42;7.28;;;;;;;9.47;79.23;99862.06;7396171;19;20002;-67
2023/03/31 06:23:01;;;;;;;14.82;6.50;;;;;;;9.43;79.40;99851.88;7392037;19;20496;-67
2023/03/31 06:25:26;;;;;;;15.50;6.53;;;;;;;9.42;80.07;99844.91;7393180;19;20003;-67
2023/03/31 06:27:52;;;;;;;16.98;7.07;;;;;;;9.45;79.72;99842.81;7395903;19;20014;-67
2023/03/31 06:30:18;;;;;;;17.13;7.75;;;;;;;9.49;79.68;99835.41;7393974;19;20019;-67
2023/03/31 06:32:43;;;;;;;14.77;7.22;;;;;;;9.49;79.66;99837.25;7390987;19;19995;-67
2023/03/31 06:35:09;;;;;;;15.77;6.70;;;;;;;9.50;79.96;99838.91;7391738;19;20018;-68
2023/03/31 06:37:35;;;;;;;15.63;6.40;;;;;;;9.52;80.17;99839.59;7394457;19;20040;-67
2023/03/31 06:40:00;;;;;;;12.80;6.43;;;;;;;9.44;80.07;99841.13;7393673;19;20466;-67
2023/03/31 06:42:26;;;;;;;13.40;6.35;;;;;;;9.51;80.23;99833.44;7393098;19;20474;-67
2023/03/31 06:44:51;;;;;;;16.30;7.18;;;;;;;9.53;79.84;99833.31;7393719;19;20016;-67
2023/03/31 06:47:17;;;;;;;16.70;6.60;;;;;;;9.54;80.06;99827.03;7394287;19;19999;-67
2023/03/31 06:49:42;;;;;;;13.23;5.72;;;;;;;9.56;79.98;99823.28;7393975;19;20002;-67
2023/03/31 06:52:08;;;;;;;15.60;6.53;;;;;;;9.65;79.82;99833.00;7392831;19;20029;-67
2023/03/31 06:54:33;;;;;;;13.27;6.22;;;;;;;9.63;80.24;99828.81;7392845;19;20017;-66
2023/03/31 06:56:59;;;;;;;16.15;6.60;;;;;;;9.57;80.49;99824.09;7392183;19;20009;-67
2023/03/31 06:59:24;;;;;;;16.42;5.97;;;;;;;9.68;80.08;99821.28;7394049;19;20034;-67
2023/03/31 07:01:50;;;;;;;15.35;6.07;;;;;;;9.72;79.90;99820.03;7392647;19;20473;-66
2023/03/31 07:04:15;;;;;;;12.75;6.00;;;;;;;9.75;79.72;99817.06;7391531;19;19999;-66
2023/03/31 07:06:41;;;;;;;14.00;6.50;;;;;;;9.59;80.39;99812.34;7392747;19;20466;-67
2023/03/31 07:09:06;;;;;;;16.05;6.35;;;;;;;9.54;80.71;99814.59;7393471;19;20012;-67
2023/03/31 07:11:41;;;;;;;13.75;6.50;;;;;;;9.63;80.57;99810.25;7390249;19;20015;-67
2023/03/31 07:14:21;;;;;;;12.27;5.88;;;;;;;9.65;80.51;99811.78;7389747;19;20490;-66
2023/03/31 07:16:47;;;;;;;12.02;5.47;;;;;;;9.76;80.21;99799.34;7393208;19;20014;-66
2023/03/31 07:19:14;;;;;;;12.30;5.75;;;;;;;9.87;79.85;99800.03;7392631;19;20359;-66
2023/03/31 07:21:40;;;;;;;11.13;5.90;;;;;;;9.88;79.94;99785.78;7391614;19;20014;-66
2023/03/31 07:24:05;;;;;;;11.82;5.78;;;;;;;9.85;79.97;99799.34;7391343;19;20339;-67
2023/03/31 07:26:31;;;;;;;13.80;6.25;;;;;;;9.75;80.48;99795.00;7392417;19;20006;-66
2023/03/31 07:28:57;;;;;;;12.48;5.68;;;;;;;9.76;80.71;99794.88;7392372;19;20494;-67
2023/03/31 07:31:23;;;;;;;11.60;5.80;;;;;;;9.81;80.82;99794.44;7393238;19;19999;-67
2023/03/31 07:33:49;;;;;;;10.75;5.47;;;;;;;9.86;80.51;99787.75;7390514;19;20010;-67
2023/03/31 07:36:14;;;;;;;11.73;6.43;;;;;;;9.89;80.24;99779.50;7396543;19;20005;-66
2023/03/31 07:38:45;;;;;;;14.32;6.18;;;;;;;9.85;80.49;99780.78;7392231;19;20027;-67
2023/03/31 07:41:12;;;;;;;11.65;5.93;;;;;;;9.95;80.13;99786.88;7390236;19;19998;-67
2023/03/31 07:43:38;;;;;;;13.73;5.53;;;;;;;10.05;80.09;99775.38;7388151;19;20021;-65
2023/03/31 07:46:06;;;;;;;13.50;5.50;;;;;;;10.20;79.39;99771.25;7392108;19;20023;-66
2023/03/31 07:48:32;;;;;;;13.07;6.05;;;;;;;10.19;79.65;99769.59;7392154;19;20010;-66
2023/03/31 07:50:58;;;;;;;12.95;5.70;;;;;;;10.29;79.39;99762.41;7392093;19;20001;-66
2023/03/31 07:53:24;;;;;;;12.57;6.03;;;;;;;10.23;79.32;99756.88;7390580;19;20479;-66
2023/03/31 07:55:49;;;;;;;13.77;6.22;;;;;;;10.19;79.85;99758.97;7387597;19;20062;-66
2023/03/31 07:58:15;;;;;;;12.52;5.97;;;;;;;10.19;79.85;99753.66;7393024;19;20070;-66
2023/03/31 08:00:41;;;;;;;12.13;6.10;;;;;;;10.24;79.86;99754.03;7391201;19;20003;-67
2023/03/31 08:03:06;;;;;;;10.90;5.65;;;;;;;10.37;79.45;99751.06;7392037;19;20016;-66
2023/03/31 08:05:32;;;;;;;12.30;6.38;;;;;;;10.38;79.44;99736.78;7391120;19;20009;-66
2023/03/31 08:07:57;;;;;;;11.52;6.10;;;;;;;10.48;79.44;99742.03;7391899;19;20006;-66
2023/03/31 08:10:25;;;;;;;12.05;6.63;;;;;;;10.46;79.55;99736.88;7390513;19;20384;-66
2023/03/31 08:12:51;;;;;;;11.32;5.75;;;;;;;10.47;79.45;99735.03;7388936;19;19999;-65
2023/03/31 08:15:20;;;;;;;14.48;6.65;;;;;;;10.42;79.96;99733.69;7389238;19;20086;-65
2023/03/31 08:17:46;;;;;;;14.90;6.65;;;;;;;10.33;79.95;99717.84;7391318;19;20500;-66
2023/03/31 08:20:12;;;;;;;12.38;6.50;;;;;;;10.36;80.02;99723.69;7384064;19;20018;-61
2023/03/31 08:22:38;;;;;;;12.43;6.13;;;;;;;10.34;80.23;99707.03;7390145;19;20023;-61
2023/03/31 08:25:07;;;;;;;12.07;6.10;;;;;;;10.49;79.46;99707.38;7390849;19;20455;-62
2023/03/31 08:27:37;;;;;;;10.50;5.63;;;;;;;10.66;78.96;99705.69;7391078;19;20468;-62
2023/03/31 08:30:05;;;;;;;11.48;6.00;;;;;;;10.73;78.86;99703.25;7389835;19;20087;-61
2023/03/31 08:32:32;;;;;;;14.25;6.60;;;;;;;10.77;78.76;99704.63;7385663;19;19995;-62
2023/03/31 08:34:58;;;;;;;14.20;6.68;;;;;;;10.81;78.99;99704.16;7389959;19;19994;-62
2023/03/31 08:37:23;;;;;;;11.25;5.97;;;;;;;10.68;79.15;99691.28;7390632;19;19991;-62
2023/03/31 08:39:49;;;;;;;11.95;5.82;;;;;;;10.66;79.50;99695.06;7390571;19;19994;-61
2023/03/31 08:42:24;;;;;;;9.80;4.85;;;;;;;10.63;79.29;99690.03;7387898;19;19991;-61
2023/03/31 08:45:40;;;;;;;12.43;5.18;;;;;;;10.62;79.67;99683.06;7389784;19;20367;-60
2023/03/31 08:48:16;;;;;;;10.88;4.63;;;;;;;10.49;79.63;99680.81;7388134;19;19999;-62
2023/03/31 08:50:48;;;;;;;10.50;4.78;;;;;;;10.41;79.38;99676.25;7387862;19;20084;-62
2023/03/31 08:53:19;;;;;;;10.63;4.85;;;;;;;10.50;79.41;99671.03;7390960;19;20002;-62
2023/03/31 08:55:53;;;;;;;9.85;4.20;;;;;;;10.50;79.26;99668.38;7391334;19;20070;-61
2023/03/31 08:58:39;;;;;;;10.68;4.53;;;;;;;10.34;79.95;99666.41;7397461;19;20028;-62
2023/03/31 09:01:04;;;;;;;10.23;4.28;;;;;;;10.41;80.12;99668.28;7395245;19;20451;-61
2023/03/31 09:04:05;;;;;;;11.93;4.80;;;;;;;10.43;79.77;99658.34;7396437;19;19994;-62
2023/03/31 09:06:42;;;;;;;12.27;4.30;;;;;;;10.52;79.65;99661.94;7366402;19;20014;-62
2023/03/31 09:10:06;;;;;;;13.07;4.20;;;;;;;10.52;79.62;99656.63;7398364;19;20010;-61
2023/03/31 09:12:56;;;;;;;12.10;4.95;;;;;;;10.52;79.75;99650.47;7399158;19;20010;-62
2023/03/31 09:15:49;;;;;;;9.60;4.13;;;;;;;10.37;79.90;99643.03;7379370;19;20022;-62
2023/03/31 09:18:27;;;;;;;10.52;4.30;;;;;;;10.38;80.03;99643.88;7384289;19;20003;-62
2023/03/31 09:20:57;;;;;;;13.18;3.83;;;;;;;10.42;79.86;99643.41;7380391;19;20025;-62
2023/03/31 09:23:31;;;;;;;8.98;3.30;;;;;;;10.35;80.66;99637.03;7397318;19;19999;-61
2023/03/31 09:26:00;;;;;;;11.18;3.85;;;;;;;10.27;80.43;99638.78;7398234;19;20002;-61
2023/03/31 09:28:33;;;;;;;7.95;3.03;;;;;;;10.21;81.16;99624.31;7376860;19;20096;-62
2023/03/31 09:31:04;;;;;;;8.98;3.55;;;;;;;10.19;81.34;99623.63;7397558;19;20005;-61
2023/03/31 09:33:33;;;;;;;9.27;3.42;;;;;;;10.25;81.06;99620.38;7397030;19;20017;-61
2023/03/31 09:36:13;;;;;;;12.25;4.30;;;;;;;10.26;81.39;99615.88;7388463;19;20002;-61
2023/03/31 09:38:41;;;;;;;10.60;4.05;;;;;;;10.25;81.78;99608.88;7396977;19;20463;-61
2023/03/31 09:41:08;;;;;;;11.38;3.80;;;;;;;10.25;81.63;99601.78;7394223;19;20006;-61
2023/03/31 09:43:40;;;;;;;10.65;3.58;;;;;;;10.16;81.94;99606.16;7395520;19;19991;-61
2023/03/31 09:46:18;;;;;;;8.90;3.28;;;;;;;10.13;82.67;99597.66;7395102;19;20006;-61
2023/03/31 09:48:52;;;;;;;9.18;3.40;;;;;;;10.13;82.14;99603.84;7396877;19;20459;-60
2023/03/31 09:51:25;;;;;;;8.60;3.20;;;;;;;10.16;81.95;99607.97;7394114;19;19994;-61
2023/03/31 09:54:07;;;;;;;9.18;3.30;;;;;;;10.11;81.97;99604.97;7393110;19;20360;-60
2023/03/31 09:56:41;;;;;;;12.10;4.53;;;;;;;10.13;82.00;99597.66;7394945;19;19999;-60
2023/03/31 09:59:16;;;;;;;8.85;3.10;;;;;;;10.24;81.47;99594.78;7395409;19;20483;-61
2023/03/31 10:01:44;;;;;;;10.02;3.80;;;;;;;10.22;81.12;99595.94;7392402;19;20003;-61
2023/03/31 10:04:27;;;;;;;10.63;3.60;;;;;;;10.17;81.34;99583.09;7395956;19;20006;-61
2023/03/31 10:06:53;;;;;;;10.63;3.70;;;;;;;10.19;81.15;99570.53;7393642;19;20058;-61
2023/03/31 10:09:22;;;;;;;7.95;3.58;;;;;;;10.31;80.61;99579.09;7395188;19;19994;-60
2023/03/31 10:11:57;;;;;;;11.13;3.25;;;;;;;10.37;80.49;99574.00;7391643;19;19998;-61
2023/03/31 10:14:33;;;;;;;11.93;3.15;;;;;;;10.63;79.33;99573.19;7395112;19;20025;-61
2023/03/31 10:17:03;;;;;;;10.68;3.80;;;;;;;10.73;78.53;99567.78;7394538;19;19995;-61
2023/03/31 10:19:32;;;;;;;7.25;3.42;;;;;;;10.98;78.03;99566.94;7395421;19;20002;-61
2023/03/31 10:22:26;;;;;;;9.15;3.70;;;;;;;11.47;76.92;99561.03;7391110;19;20124;-61
2023/03/31 10:24:59;;;;;;;12.20;3.85;;;;;;;11.37;77.00;99553.19;7394428;19;20040;-61
2023/03/31 10:27:27;;;;;;;18.70;7.00;;;;;;;11.09;77.91;99552.56;7394605;19;20018;-62
2023/03/31 10:29:55;;;;;;;10.95;4.13;;;;;;;10.91;78.80;99549.97;7394362;19;20016;-61
2023/03/31 10:32:26;;;;;;;8.90;3.40;;;;;;;10.83;78.99;99544.59;7392580;19;20013;-61
2023/03/31 10:34:51;;;;;;;9.90;3.28;;;;;;;10.82;78.70;99546.44;7393161;19;20012;-62
2023/03/31 10:37:22;;;;;;;7.22;3.08;;;;;;;10.75;78.76;99547.22;7394287;19;20058;-62
2023/03/31 10:39:56;;;;;;;9.77;3.35;;;;;;;10.56;79.35;99542.94;7392183;19;20022;-62
2023/03/31 10:42:23;;;;;;;8.48;2.92;;;;;;;10.63;79.31;99544.81;7393590;19;20003;-61
2023/03/31 10:44:48;;;;;;;7.68;2.72;;;;;;;10.73;78.93;99543.88;7392875;19;20342;-61
2023/03/31 10:47:14;;;;;;;7.97;2.60;;;;;;;10.72;78.74;99544.88;7392523;19;19995;-62
2023/03/31 10:49:41;;;;;;;7.75;2.60;;;;;;;10.69;79.04;99540.69;7393285;19;20400;-61
2023/03/31 10:52:24;;;;;;;8.80;3.40;;;;;;;10.67;79.29;99535.56;7393087;19;20022;-61
2023/03/31 10:54:59;;;;;;;9.90;2.80;;;;;;;10.78;78.85;99533.59;7391449;19;20011;-62
2023/03/31 10:57:52;;;;;;;9.52;2.83;;;;;;;10.92;78.46;99530.38;7393343;19;20498;-62
2023/03/31 11:00:36;;;;;;;8.75;3.17;;;;;;;10.84;78.40;99540.94;7391755;19;20011;-62
2023/03/31 11:03:22;;;;;;;7.53;2.97;;;;;;;10.72;79.36;99531.59;7393101;19;20019;-62
2023/03/31 11:06:15;;;;;;;11.40;3.25;;;;;;;10.72;79.18;99528.94;7392326;19;19994;-62
2023/03/31 11:09:02;;;;;;;10.82;3.08;;;;;;;10.81;78.96;99530.63;7393371;19;20002;-62
2023/03/31 11:11:56;;;;;;;7.05;3.00;;;;;;;10.96;78.91;99530.88;7391109;19;20336;-62
2023/03/31 11:14:40;;;;;;;10.10;3.03;;;;;;;11.08;77.98;99517.16;7392049;19;20122;-62
2023/03/31 11:17:20;;;;;;;6.63;2.97;;;;;;;11.19;77.85;99526.66;7392909;19;19998;-62
2023/03/31 11:20:01;;;;;;;8.10;2.70;;;;;;;11.18;77.53;99514.38;7393372;19;20007;-63
2023/03/31 11:22:36;;;;;;;8.75;2.67;;;;;;;11.40;76.36;99513.81;7389466;19;20018;-61
2023/03/31 11:25:08;;;;;;;8.82;3.63;;;;;;;11.52;76.31;99511.69;7392159;19;20019;-62
2023/03/31 11:27:48;;;;;;;7.95;2.72;;;;;;;11.56;75.67;99504.22;7392236;19;20034;-62
2023/03/31 11:30:27;;;;;;;6.82;2.70;;;;;;;11.67;75.52;99509.22;7391569;19;20062;-63
2023/03/31 11:32:53;;;;;;;5.95;2.60;;;;;;;11.79;75.29;99509.75;7390917;19;20019;-63
2023/03/31 11:35:37;;;;;;;10.43;2.75;;;;;;;11.97;74.54;99498.94;7390254;19;20679;-63
2023/03/31 11:38:35;;;;;;;6.55;2.60;;;;;;;12.10;74.47;99500.09;7391441;19;20541;-63
2023/03/31 11:41:12;;;;;;;5.93;2.33;;;;;;;12.04;73.43;99497.25;7389365;19;20341;-62
2023/03/31 11:43:37;;;;;;;5.55;2.58;;;;;;;11.71;74.75;99494.59;7390819;19;20030;-61
2023/03/31 11:46:11;;;;;;;7.90;2.88;;;;;;;11.57;75.29;99496.06;7389901;19;19998;-62
2023/03/31 11:48:58;;;;;;;5.60;2.80;;;;;;;11.72;73.76;99476.81;7392022;19;20034;-62